Time;durP1;ratioP1;P1;durP2;ratioP2;P2;SDS_P1;SDS_P2;PMS_P1;PMS_P2;Temp;Humidity;BMP_temperature;BMP_pressure;BME280_temperature;BME280_humidity;BME280_pressure;Samples;Min_cycle;Max_cycle;Signal;HPM_P1;HPM_P2
2023/05/04 00:01:50;;;;;;;18.15;10.77;;;11.80;59.30;;;;;;5001358;28;20044;-80
2023/05/04 00:04:16;;;;;;;16.65;11.25;;;11.80;59.30;;;;;;4999137;28;20026;-74
2023/05/04 00:06:42;;;;;;;16.88;10.93;;;11.80;59.40;;;;;;4998086;28;20062;-76
2023/05/04 00:09:09;;;;;;;14.88;10.95;;;11.80;59.30;;;;;;5004984;28;20064;-75
2023/05/04 00:11:35;;;;;;;14.23;10.25;;;11.70;59.60;;;;;;5001972;28;20038;-73
2023/05/04 00:14:01;;;;;;;14.43;10.43;;;11.70;59.80;;;;;;5002718;28;20452;-74
2023/05/04 00:16:27;;;;;;;16.00;11.00;;;11.60;59.90;;;;;;5005710;28;20099;-77
2023/05/04 00:18:52;;;;;;;15.75;11.10;;;11.60;59.90;;;;;;5005814;28;20026;-74
2023/05/04 00:21:18;;;;;;;16.02;10.90;;;11.60;60.10;;;;;;4998738;28;20065;-77
2023/05/04 00:23:44;;;;;;;13.90;10.77;;;11.50;60.30;;;;;;5003928;28;20411;-81
2023/05/04 00:26:09;;;;;;;18.00;12.23;;;11.50;60.40;;;;;;5001699;28;20550;-77
2023/05/04 00:28:35;;;;;;;20.45;11.48;;;11.50;60.50;;;;;;5004319;28;20026;-72
2023/05/04 00:31:01;;;;;;;16.15;10.82;;;11.50;60.60;;;;;;5003550;28;20038;-76
2023/05/04 00:33:26;;;;;;;20.42;12.10;;;11.40;60.80;;;;;;4989550;28;20464;-74
2023/05/04 00:35:52;;;;;;;19.58;11.73;;;11.40;60.90;;;;;;5002730;28;20060;-75
2023/05/04 00:38:18;;;;;;;19.77;11.57;;;11.40;60.90;;;;;;5002580;28;20387;-76
2023/05/04 00:40:44;;;;;;;17.40;11.68;;;11.30;61.20;;;;;;5000342;28;20029;-73
2023/05/04 00:43:10;;;;;;;18.10;11.43;;;11.30;61.30;;;;;;5005489;28;20099;-79
2023/05/04 00:45:36;;;;;;;16.23;11.48;;;11.30;61.40;;;;;;5004166;28;20400;-79
2023/05/04 00:48:02;;;;;;;14.80;11.35;;;11.30;61.50;;;;;;4992158;28;20109;-75
2023/05/04 00:50:28;;;;;;;15.75;11.52;;;11.20;61.60;;;;;;5001163;28;20033;-74
2023/05/04 00:52:57;;;;;;;16.08;11.95;;;11.20;61.80;;;;;;5003858;28;20041;-75
2023/05/04 00:55:22;;;;;;;15.88;11.77;;;11.10;61.90;;;;;;5003522;28;20430;-73
2023/05/04 00:57:49;;;;;;;16.08;11.73;;;11.10;62.10;;;;;;5004706;28;20034;-78
2023/05/04 01:00:15;;;;;;;15.52;11.43;;;11.10;62.20;;;;;;5004098;28;20053;-74
2023/05/04 01:02:41;;;;;;;17.13;11.85;;;11.00;62.40;;;;;;5002442;28;20038;-80
2023/05/04 01:05:08;;;;;;;17.95;10.93;;;11.00;62.60;;;;;;4986727;28;20103;-75
2023/05/04 01:07:33;;;;;;;16.63;12.23;;;11.00;62.80;;;;;;5003940;28;20045;-73
2023/05/04 01:10:05;;;;;;;16.75;12.38;;;11.00;62.80;;;;;;5003826;28;20030;-76
2023/05/04 01:12:39;;;;;;;16.65;12.48;;;10.90;62.90;;;;;;4986273;28;20037;-75
2023/05/04 01:15:07;;;;;;;16.42;11.80;;;10.80;63.10;;;;;;5005180;28;20108;-75
2023/05/04 01:17:33;;;;;;;16.95;10.52;;;10.80;63.30;;;;;;4998272;28;20046;-81
2023/05/04 01:19:59;;;;;;;17.52;12.07;;;10.80;63.40;;;;;;5000409;28;20040;-76
2023/05/04 01:22:25;;;;;;;18.70;11.63;;;10.80;63.50;;;;;;5004669;28;20030;-77
2023/05/04 01:24:51;;;;;;;16.20;12.05;;;10.70;63.70;;;;;;5002612;28;20026;-74
2023/05/04 01:27:45;;;;;;;16.80;12.00;;;10.70;63.90;;;;;;5003115;28;20050;-79
2023/05/04 01:30:37;;;;;;;18.07;11.90;;;10.60;64.10;;;;;;5000596;28;20029;-78
2023/05/04 01:33:03;;;;;;;17.70;11.65;;;10.60;64.20;;;;;;4996922;28;20056;-78
2023/05/04 01:35:29;;;;;;;15.95;12.05;;;10.60;64.50;;;;;;5005131;28;20109;-83
2023/05/04 01:37:55;;;;;;;19.17;12.30;;;10.50;64.40;;;;;;5002563;28;20422;-78
2023/05/04 01:40:21;;;;;;;17.52;12.52;;;10.50;64.60;;;;;;5000557;28;20060;-75
2023/05/04 01:42:47;;;;;;;17.63;12.45;;;10.50;64.70;;;;;;4998024;28;20092;-76
2023/05/04 01:45:12;;;;;;;19.98;12.48;;;10.40;64.80;;;;;;5002564;28;20026;-79
2023/05/04 01:47:38;;;;;;;18.67;12.35;;;10.40;65.00;;;;;;5003917;28;20045;-79
2023/05/04 01:50:04;;;;;;;18.00;12.05;;;10.40;65.00;;;;;;5004550;28;20588;-74
2023/05/04 01:52:30;;;;;;;15.77;11.20;;;10.40;65.20;;;;;;5002015;28;20067;-79
2023/05/04 01:54:56;;;;;;;17.85;12.25;;;10.40;65.30;;;;;;5001481;28;20064;-78
2023/05/04 01:57:22;;;;;;;18.17;12.55;;;10.30;65.60;;;;;;5003900;28;20366;-77
2023/05/04 01:59:47;;;;;;;17.65;12.05;;;10.30;65.70;;;;;;5003632;28;20057;-77
2023/05/04 02:02:13;;;;;;;15.07;11.80;;;10.30;65.80;;;;;;5002321;28;20038;-74
2023/05/04 02:04:40;;;;;;;15.90;11.52;;;10.30;65.80;;;;;;5001100;28;20471;-74
2023/05/04 02:07:06;;;;;;;16.65;12.07;;;10.20;65.80;;;;;;5004211;28;20122;-76
2023/05/04 02:09:31;;;;;;;20.42;12.15;;;10.20;65.80;;;;;;5003037;28;20155;-77
2023/05/04 02:11:57;;;;;;;19.40;12.32;;;10.20;65.90;;;;;;5002554;28;20069;-77
2023/05/04 02:14:23;;;;;;;18.27;12.75;;;10.20;66.10;;;;;;4983075;28;20036;-76
2023/05/04 02:16:49;;;;;;;17.77;12.80;;;10.20;66.00;;;;;;4995655;28;20037;-76
2023/05/04 02:19:14;;;;;;;22.95;13.27;;;10.20;66.20;;;;;;5004965;28;20183;-73
2023/05/04 02:21:41;;;;;;;16.98;11.93;;;10.20;66.30;;;;;;4999372;28;20407;-77
2023/05/04 02:24:07;;;;;;;17.45;12.65;;;10.10;66.50;;;;;;4999898;28;20080;-81
2023/05/04 02:26:33;;;;;;;16.70;12.20;;;10.10;66.50;;;;;;4999490;28;20038;-74
2023/05/04 02:28:59;;;;;;;26.10;13.55;;;10.20;66.50;;;;;;5004224;28;20029;-74
2023/05/04 02:31:24;;;;;;;18.27;12.20;;;10.20;66.50;;;;;;4999938;28;20037;-76
2023/05/04 02:33:52;;;;;;;22.30;13.73;;;10.20;66.50;;;;;;4985361;28;20034;-75
2023/05/04 02:36:17;;;;;;;16.42;12.75;;;10.20;66.50;;;;;;5001687;28;20038;-77
2023/05/04 02:38:43;;;;;;;18.20;12.65;;;10.20;66.50;;;;;;5001942;28;20041;-75
2023/05/04 02:41:09;;;;;;;19.38;13.07;;;10.20;66.70;;;;;;4997618;28;20049;-78
2023/05/04 02:43:34;;;;;;;18.13;12.20;;;10.20;66.80;;;;;;5001298;28;20022;-75
2023/05/04 02:46:00;;;;;;;16.77;11.90;;;10.10;66.80;;;;;;4999187;28;20561;-79
2023/05/04 02:48:26;;;;;;;17.17;12.55;;;10.10;66.90;;;;;;5000195;28;20052;-82
2023/05/04 02:50:51;;;;;;;17.02;12.50;;;10.10;67.00;;;;;;4997064;28;20026;-75
2023/05/04 02:53:17;;;;;;;19.30;13.27;;;10.10;67.20;;;;;;4999881;28;20030;-76
2023/05/04 02:55:43;;;;;;;18.20;12.13;;;10.00;67.40;;;;;;5001521;28;20363;-75
2023/05/04 02:58:09;;;;;;;19.17;12.65;;;10.00;67.60;;;;;;4997025;28;21315;-77
2023/05/04 03:00:34;;;;;;;20.73;13.25;;;10.00;67.60;;;;;;5000998;28;20072;-76
2023/05/04 03:03:00;;;;;;;19.67;12.68;;;10.00;67.70;;;;;;5001388;28;20048;-77
2023/05/04 03:05:26;;;;;;;18.60;12.05;;;9.90;67.80;;;;;;4996735;28;20021;-77
2023/05/04 03:07:51;;;;;;;18.50;12.43;;;9.90;67.80;;;;;;4997742;28;20132;-74
2023/05/04 03:10:17;;;;;;;18.17;13.40;;;9.90;68.00;;;;;;5002651;28;20114;-74
2023/05/04 03:12:43;;;;;;;17.83;12.90;;;9.90;68.00;;;;;;5000387;28;20061;-76
2023/05/04 03:15:09;;;;;;;18.45;13.02;;;9.90;68.00;;;;;;4982978;28;20433;-76
2023/05/04 03:17:35;;;;;;;18.13;13.30;;;9.90;68.00;;;;;;5001839;28;20038;-77
2023/05/04 03:20:01;;;;;;;17.80;12.80;;;9.90;68.10;;;;;;5002609;28;20117;-76
2023/05/04 03:22:26;;;;;;;21.40;13.30;;;9.90;68.20;;;;;;4985194;28;20034;-78
2023/05/04 03:24:52;;;;;;;18.55;12.75;;;9.80;68.20;;;;;;5001050;28;20244;-77
2023/05/04 03:27:18;;;;;;;17.77;12.60;;;9.80;68.20;;;;;;4999667;28;20088;-74
2023/05/04 03:29:43;;;;;;;22.65;13.60;;;9.80;68.30;;;;;;5001342;28;20053;-77
2023/05/04 03:32:09;;;;;;;19.00;13.73;;;9.70;68.60;;;;;;4998248;28;20096;-75
2023/05/04 03:34:34;;;;;;;18.63;13.75;;;9.80;68.80;;;;;;5000558;28;20423;-78
2023/05/04 03:37:00;;;;;;;18.55;12.63;;;9.70;68.90;;;;;;4999184;28;20057;-80
2023/05/04 03:39:26;;;;;;;19.45;13.93;;;9.70;68.90;;;;;;5000315;28;20025;-77
2023/05/04 03:41:52;;;;;;;19.83;13.48;;;9.70;69.10;;;;;;4998201;28;20053;-75
2023/05/04 03:44:17;;;;;;;20.65;13.90;;;9.70;69.20;;;;;;4986928;28;20038;-75
2023/05/04 03:46:43;;;;;;;17.98;13.38;;;9.60;69.20;;;;;;5004243;28;20626;-75
2023/05/04 03:49:09;;;;;;;21.08;14.25;;;9.70;69.30;;;;;;5005395;28;20033;-80
2023/05/04 03:51:35;;;;;;;22.40;14.35;;;9.60;69.30;;;;;;5000849;28;20522;-74
2023/05/04 03:54:00;;;;;;;18.02;13.00;;;9.60;69.30;;;;;;5003297;28;20040;-76
2023/05/04 03:56:26;;;;;;;21.60;14.85;;;9.60;69.40;;;;;;5003405;28;20545;-74
2023/05/04 03:58:52;;;;;;;21.58;13.43;;;9.60;69.50;;;;;;5001224;28;20084;-74
2023/05/04 04:01:17;;;;;;;19.60;14.13;;;9.60;69.50;;;;;;5003066;28;20136;-76
2023/05/04 04:03:43;;;;;;;17.85;14.43;;;9.60;69.70;;;;;;5004488;28;20387;-74
2023/05/04 04:06:10;;;;;;;18.52;13.77;;;9.60;69.80;;;;;;5004991;28;20042;-78
2023/05/04 04:08:36;;;;;;;19.80;14.05;;;9.60;70.00;;;;;;5005249;28;20092;-77
2023/05/04 04:11:01;;;;;;;18.90;14.80;;;9.60;70.00;;;;;;5006784;28;20654;-74
2023/05/04 04:13:27;;;;;;;20.00;13.73;;;9.50;70.00;;;;;;5006066;28;20034;-73
2023/05/04 04:15:53;;;;;;;22.10;15.50;;;9.50;70.30;;;;;;5002320;28;20856;-77
2023/05/04 04:18:19;;;;;;;22.67;14.88;;;9.50;70.20;;;;;;5006016;28;20104;-74
2023/05/04 04:20:45;;;;;;;20.10;14.63;;;9.50;70.30;;;;;;5005450;28;20034;-76
2023/05/04 04:23:11;;;;;;;22.83;14.35;;;9.50;70.40;;;;;;5003943;28;20041;-78
2023/05/04 04:25:37;;;;;;;22.88;14.80;;;9.40;70.50;;;;;;5004209;28;20467;-76
2023/05/04 04:28:03;;;;;;;20.63;14.82;;;9.50;70.60;;;;;;4987988;28;20038;-76
2023/05/04 04:30:28;;;;;;;22.40;15.15;;;9.50;70.60;;;;;;5004397;28;20037;-73
2023/05/04 04:32:56;;;;;;;22.05;14.93;;;9.50;70.70;;;;;;4999522;28;20029;-76
2023/05/04 04:35:22;;;;;;;20.67;15.10;;;9.50;70.50;;;;;;4987030;28;20045;-74
2023/05/04 04:37:48;;;;;;;21.20;15.20;;;9.50;70.70;;;;;;5003491;28;20048;-77
2023/05/04 04:40:14;;;;;;;21.10;15.45;;;9.50;70.80;;;;;;5005443;28;20395;-73
2023/05/04 04:42:40;;;;;;;20.77;15.05;;;9.50;70.60;;;;;;5003855;28;20488;-75
2023/05/04 04:45:07;;;;;;;23.77;15.82;;;9.50;70.90;;;;;;5004539;28;20172;-79
2023/05/04 04:47:32;;;;;;;18.88;14.77;;;9.60;70.90;;;;;;5003292;28;20045;-77
2023/05/04 04:49:58;;;;;;;23.48;15.32;;;9.60;70.80;;;;;;5002908;28;20406;-73
2023/05/04 04:52:24;;;;;;;25.27;15.65;;;9.60;70.90;;;;;;4996441;28;20038;-71
2023/05/04 04:54:50;;;;;;;20.35;14.63;;;9.60;70.80;;;;;;5002390;28;20032;-73
2023/05/04 04:57:16;;;;;;;20.27;14.80;;;9.60;70.80;;;;;;5006348;28;20050;-72
2023/05/04 04:59:42;;;;;;;20.48;14.48;;;9.60;71.00;;;;;;5005098;28;20050;-72
2023/05/04 05:02:08;;;;;;;22.65;15.40;;;9.60;71.00;;;;;;5002187;28;20054;-77
2023/05/04 05:04:37;;;;;;;26.42;15.63;;;9.60;71.00;;;;;;5005641;28;20048;-73
2023/05/04 05:07:03;;;;;;;20.20;14.48;;;9.60;71.10;;;;;;5001968;28;20161;-73
2023/05/04 05:09:29;;;;;;;23.73;15.43;;;9.60;70.90;;;;;;5001584;28;20117;-83
2023/05/04 05:11:55;;;;;;;21.05;15.77;;;9.60;70.70;;;;;;5006128;28;20119;-72
2023/05/04 05:14:21;;;;;;;24.50;16.15;;;9.60;70.80;;;;;;5004735;28;20478;-75
2023/05/04 05:16:46;;;;;;;20.02;14.57;;;9.70;70.90;;;;;;5005468;28;20089;-74
2023/05/04 05:19:12;;;;;;;24.25;15.05;;;9.80;70.80;;;;;;5002990;28;20026;-77
2023/05/04 05:21:38;;;;;;;21.20;15.30;;;9.80;70.90;;;;;;5001256;28;20136;-76
2023/05/04 05:24:04;;;;;;;18.40;13.45;;;9.80;70.80;;;;;;5000467;28;20099;-75
2023/05/04 05:26:29;;;;;;;23.80;15.30;;;9.90;70.60;;;;;;5004090;28;20104;-79
2023/05/04 05:28:55;;;;;;;22.48;15.55;;;9.90;70.40;;;;;;5005394;28;20030;-74
2023/05/04 05:31:21;;;;;;;22.30;15.38;;;10.10;70.50;;;;;;5002998;28;20076;-77
2023/05/04 05:33:47;;;;;;;21.25;15.68;;;10.10;70.50;;;;;;5004293;28;20037;-74
2023/05/04 05:36:13;;;;;;;20.50;14.90;;;10.10;70.30;;;;;;5002790;28;20767;-77
2023/05/04 05:38:39;;;;;;;18.98;14.93;;;10.20;70.10;;;;;;5001699;28;20044;-74
2023/05/04 05:41:04;;;;;;;20.70;14.65;;;10.20;70.20;;;;;;5002806;28;20406;-73
2023/05/04 05:43:32;;;;;;;20.90;15.43;;;10.40;70.20;;;;;;4984514;28;21804;-74
2023/05/04 05:45:58;;;;;;;24.88;15.60;;;10.50;69.70;;;;;;5003346;28;20030;-74
2023/05/04 05:48:23;;;;;;;20.55;15.57;;;10.50;69.50;;;;;;5002162;28;20022;-76
2023/05/04 05:50:49;;;;;;;23.20;15.05;;;10.60;69.30;;;;;;5000372;28;20516;-75
2023/05/04 05:53:15;;;;;;;23.25;15.57;;;10.80;69.30;;;;;;5004777;28;20032;-76
2023/05/04 05:55:40;;;;;;;21.52;14.98;;;11.00;68.60;;;;;;5000495;28;20474;-74
2023/05/04 05:58:07;;;;;;;22.27;15.70;;;11.10;68.30;;;;;;5003685;28;20497;-74
2023/05/04 06:00:33;;;;;;;18.88;14.95;;;11.10;67.90;;;;;;5003105;28;20100;-74
2023/05/04 06:02:58;;;;;;;21.55;14.70;;;11.30;68.20;;;;;;5003267;28;20037;-76
2023/05/04 06:05:24;;;;;;;21.38;15.40;;;11.40;67.50;;;;;;4997826;28;20109;-75
2023/05/04 06:07:50;;;;;;;18.92;14.27;;;11.40;67.20;;;;;;5000035;28;20033;-76
2023/05/04 06:10:15;;;;;;;23.63;15.27;;;11.40;67.20;;;;;;5002316;28;20509;-73
2023/05/04 06:12:41;;;;;;;23.05;15.55;;;11.50;66.90;;;;;;5003203;28;20129;-78
2023/05/04 06:15:08;;;;;;;19.00;14.43;;;11.60;66.70;;;;;;5002349;28;20034;-74
2023/05/04 06:17:34;;;;;;;20.65;14.63;;;11.70;66.70;;;;;;4998885;28;20029;-75
2023/05/04 06:20:00;;;;;;;20.77;15.13;;;11.90;66.60;;;;;;5002771;28;20034;-73
2023/05/04 06:22:26;;;;;;;21.23;14.93;;;11.90;65.90;;;;;;4993551;28;20030;-75
2023/05/04 06:24:51;;;;;;;21.55;15.13;;;12.00;65.80;;;;;;4985069;28;20541;-71
2023/05/04 06:27:17;;;;;;;21.30;15.05;;;12.20;66.00;;;;;;5001058;28;20030;-74
2023/05/04 06:29:43;;;;;;;19.83;14.07;;;12.30;65.00;;;;;;5002911;28;20136;-73
2023/05/04 06:32:09;;;;;;;19.63;14.65;;;12.30;64.60;;;;;;5001798;28;20477;-76
2023/05/04 06:34:35;;;;;;;18.88;14.38;;;12.50;65.10;;;;;;5002044;28;20030;-74
2023/05/04 06:37:02;;;;;;;19.75;14.48;;;12.60;64.00;;;;;;5001683;28;20124;-72
2023/05/04 06:39:27;;;;;;;19.73;14.30;;;12.70;63.70;;;;;;5001633;28;20514;-75
2023/05/04 06:41:57;;;;;;;19.98;13.77;;;12.80;63.30;;;;;;4997322;28;20038;-74
2023/05/04 06:44:22;;;;;;;19.50;13.77;;;12.80;63.60;;;;;;5000401;28;20749;-74
2023/05/04 06:46:48;;;;;;;18.80;13.45;;;13.00;63.40;;;;;;4985390;28;20038;-74
2023/05/04 06:49:16;;;;;;;22.25;13.60;;;13.10;62.90;;;;;;4979974;28;20452;-74
2023/05/04 06:51:42;;;;;;;19.17;13.75;;;13.20;62.80;;;;;;4999256;28;20052;-74
2023/05/04 06:54:07;;;;;;;21.73;13.45;;;13.30;62.30;;;;;;5002714;28;20037;-74
2023/05/04 06:56:33;;;;;;;17.77;12.90;;;13.50;62.00;;;;;;5000902;28;20135;-74
2023/05/04 06:58:59;;;;;;;18.83;12.85;;;13.50;61.70;;;;;;4994550;28;20475;-75
2023/05/04 07:01:24;;;;;;;18.55;13.05;;;13.60;61.70;;;;;;5000149;28;20042;-73
2023/05/04 07:03:51;;;;;;;20.55;13.30;;;13.90;61.20;;;;;;4999854;28;20040;-73
2023/05/04 07:06:17;;;;;;;16.75;13.05;;;13.90;60.60;;;;;;5000096;28;20049;-76
2023/05/04 07:08:42;;;;;;;18.27;12.63;;;14.10;60.50;;;;;;5003887;28;20026;-73
2023/05/04 07:11:09;;;;;;;22.27;12.30;;;14.20;59.20;;;;;;4982893;28;20049;-76
2023/05/04 07:13:34;;;;;;;19.50;12.27;;;14.30;58.20;;;;;;4999002;28;20498;-72
2023/05/04 07:16:00;;;;;;;19.58;12.40;;;14.60;58.60;;;;;;4984615;28;20060;-76
2023/05/04 07:18:26;;;;;;;17.10;12.20;;;14.60;58.80;;;;;;5006984;28;20050;-75
2023/05/04 07:20:52;;;;;;;18.83;12.50;;;14.80;58.60;;;;;;4997314;28;20462;-75
2023/05/04 07:23:18;;;;;;;18.40;12.52;;;15.00;57.70;;;;;;5003738;28;20184;-75
2023/05/04 07:25:43;;;;;;;15.85;11.82;;;15.00;56.60;;;;;;5004001;28;20022;-75
2023/05/04 07:28:09;;;;;;;16.48;12.20;;;14.90;57.80;;;;;;5003137;28;20061;-75
2023/05/04 07:30:35;;;;;;;17.35;11.77;;;15.00;57.00;;;;;;5003099;28;20128;-77
2023/05/04 07:33:01;;;;;;;17.42;11.68;;;15.10;56.90;;;;;;5000223;28;20045;-74
2023/05/04 07:35:27;;;;;;;15.98;11.13;;;15.20;56.30;;;;;;5004429;28;20026;-78
2023/05/04 07:37:53;;;;;;;15.82;11.88;;;15.30;55.70;;;;;;4990062;28;20030;-75
2023/05/04 07:40:20;;;;;;;18.85;11.95;;;15.60;56.10;;;;;;4998271;28;20082;-76
2023/05/04 07:42:46;;;;;;;21.30;11.23;;;16.00;55.20;;;;;;5000236;28;20038;-74
2023/05/04 07:45:13;;;;;;;14.35;10.68;;;16.10;55.00;;;;;;5004522;28;20034;-75
2023/05/04 07:47:39;;;;;;;17.77;11.38;;;16.30;53.90;;;;;;5003698;28;20505;-73
2023/05/04 07:50:05;;;;;;;15.65;11.35;;;16.50;54.10;;;;;;5005380;28;20034;-75
2023/05/04 07:52:30;;;;;;;17.67;11.73;;;16.50;53.60;;;;;;5004021;28;20029;-73
2023/05/04 07:54:56;;;;;;;15.13;10.82;;;16.60;53.60;;;;;;5005597;28;20022;-76
2023/05/04 07:57:22;;;;;;;15.18;10.95;;;16.70;53.20;;;;;;4987155;28;20037;-76
2023/05/04 07:59:48;;;;;;;17.48;10.77;;;16.80;52.60;;;;;;5003480;28;20045;-77
2023/05/04 08:02:13;;;;;;;18.00;10.20;;;17.10;53.40;;;;;;5004492;28;20037;-74
2023/05/04 08:04:39;;;;;;;16.50;10.60;;;17.10;52.90;;;;;;5004439;28;20092;-75
2023/05/04 08:07:05;;;;;;;15.23;10.35;;;17.40;52.80;;;;;;5004642;28;20399;-74
2023/05/04 08:09:31;;;;;;;19.05;11.20;;;17.50;51.10;;;;;;5004525;28;20022;-74
2023/05/04 08:11:57;;;;;;;16.13;10.30;;;17.60;51.60;;;;;;5005233;28;20077;-75
2023/05/04 08:14:22;;;;;;;16.10;10.02;;;17.70;51.40;;;;;;5003892;28;20080;-75
2023/05/04 08:16:48;;;;;;;15.70;10.32;;;17.80;50.90;;;;;;5004884;28;20528;-75
2023/05/04 08:19:14;;;;;;;14.00;10.40;;;17.90;51.30;;;;;;5003571;28;20030;-76
2023/05/04 08:21:40;;;;;;;14.65;10.73;;;18.00;51.00;;;;;;5005634;28;20116;-76
2023/05/04 08:24:06;;;;;;;14.15;10.63;;;17.90;50.30;;;;;;4998717;28;20026;-75
2023/05/04 08:26:36;;;;;;;14.23;10.27;;;17.90;50.90;;;;;;5004021;28;20076;-75
2023/05/04 08:29:07;;;;;;;15.77;10.63;;;18.10;52.00;;;;;;5000133;28;20030;-74
2023/05/04 08:31:33;;;;;;;13.65;10.13;;;18.40;50.30;;;;;;4985306;28;21299;-75
2023/05/04 08:33:59;;;;;;;14.77;9.93;;;18.40;50.80;;;;;;4998832;28;20046;-76
2023/05/04 08:36:26;;;;;;;14.43;10.35;;;18.80;50.30;;;;;;4987253;28;20046;-75
2023/05/04 08:38:52;;;;;;;15.02;9.90;;;18.90;49.40;;;;;;5005149;28;20029;-76
2023/05/04 08:41:18;;;;;;;18.33;11.30;;;19.10;50.10;;;;;;4999595;28;20112;-75
2023/05/04 08:43:45;;;;;;;15.23;9.93;;;19.30;49.60;;;;;;5002190;28;20041;-75
2023/05/04 08:46:12;;;;;;;16.85;10.57;;;19.30;48.10;;;;;;5002646;28;20037;-74
2023/05/04 08:48:38;;;;;;;15.35;9.98;;;19.50;49.20;;;;;;5000578;28;20049;-75
2023/05/04 08:51:05;;;;;;;14.40;9.80;;;19.50;49.30;;;;;;4998786;28;20053;-74
2023/05/04 08:53:36;;;;;;;13.75;9.95;;;19.60;47.60;;;;;;5001970;28;20033;-76
2023/05/04 08:56:06;;;;;;;15.25;10.00;;;19.80;47.60;;;;;;4998670;28;20104;-75
2023/05/04 08:58:36;;;;;;;13.88;10.50;;;19.90;47.70;;;;;;5004079;28;20022;-75
2023/05/04 09:01:05;;;;;;;15.40;10.27;;;20.00;48.00;;;;;;4987885;28;20038;-75
2023/05/04 09:03:31;;;;;;;13.32;9.80;;;20.30;49.00;;;;;;5003417;28;20018;-77
2023/05/04 09:05:58;;;;;;;12.30;9.57;;;20.50;47.10;;;;;;5003144;28;20049;-75
2023/05/04 09:08:24;;;;;;;17.20;10.63;;;20.50;47.50;;;;;;5003459;28;20021;-76
2023/05/04 09:10:50;;;;;;;15.50;10.02;;;20.40;46.60;;;;;;5002924;28;20137;-75
2023/05/04 09:13:16;;;;;;;14.13;9.68;;;20.40;46.90;;;;;;5005015;28;20515;-75
2023/05/04 09:15:52;;;;;;;15.10;10.90;;;20.20;46.80;;;;;;4985535;28;20018;-77
2023/05/04 09:18:17;;;;;;;12.73;9.88;;;20.20;47.50;;;;;;5001269;28;20088;-77
2023/05/04 09:20:48;;;;;;;13.80;9.73;;;20.60;47.30;;;;;;5002157;28;20026;-75
2023/05/04 09:23:18;;;;;;;13.65;9.48;;;20.70;47.10;;;;;;4998666;28;20488;-73
2023/05/04 09:25:51;;;;;;;13.90;9.38;;;21.10;46.20;;;;;;5002554;28;20053;-74
2023/05/04 09:28:18;;;;;;;14.05;9.73;;;21.20;45.50;;;;;;4994303;28;20061;-75
2023/05/04 09:30:45;;;;;;;14.20;10.45;;;21.30;46.30;;;;;;4986763;28;20025;-75
2023/05/04 09:33:11;;;;;;;12.82;9.40;;;21.40;45.50;;;;;;5003476;28;20080;-76
2023/05/04 09:35:41;;;;;;;18.35;10.23;;;21.60;45.50;;;;;;5004465;28;20437;-75
2023/05/04 09:38:08;;;;;;;14.02;9.73;;;21.60;45.00;;;;;;5005229;28;20108;-74
2023/05/04 09:40:40;;;;;;;18.05;10.23;;;21.50;45.40;;;;;;5002502;28;20026;-75
2023/05/04 09:43:09;;;;;;;15.73;9.90;;;21.70;45.00;;;;;;5002528;28;20121;-75
2023/05/04 09:45:39;;;;;;;12.52;9.60;;;21.60;45.60;;;;;;5004567;28;20043;-75
2023/05/04 09:48:18;;;;;;;14.30;10.50;;;21.90;45.40;;;;;;4996669;28;20050;-75
2023/05/04 09:50:55;;;;;;;10.77;8.57;;;21.80;44.40;;;;;;5000783;28;20084;-75
2023/05/04 09:53:28;;;;;;;14.32;9.65;;;22.00;44.70;;;;;;5002017;28;20026;-74
2023/05/04 09:56:15;;;;;;;13.82;9.90;;;22.10;44.70;;;;;;5000585;28;20029;-75
2023/05/04 09:58:42;;;;;;;13.82;9.48;;;22.10;45.00;;;;;;5002007;28;20030;-75
2023/05/04 10:01:08;;;;;;;12.40;9.85;;;22.40;45.60;;;;;;4980383;28;20073;-78
2023/05/04 10:03:34;;;;;;;14.95;10.20;;;22.20;44.90;;;;;;4984056;28;20032;-74
2023/05/04 10:06:03;;;;;;;10.55;8.82;;;22.60;43.30;;;;;;4982787;28;20046;-76
2023/05/04 10:08:30;;;;;;;10.70;8.48;;;22.60;43.30;;;;;;4981815;28;20034;-76
2023/05/04 10:10:56;;;;;;;13.73;9.82;;;22.90;44.00;;;;;;4982901;28;20026;-78
2023/05/04 10:13:23;;;;;;;11.82;9.15;;;22.90;42.00;;;;;;4983146;28;20105;-76
2023/05/04 10:16:17;;;;;;;12.48;9.10;;;22.70;43.00;;;;;;4980782;28;20033;-76
2023/05/04 10:19:15;;;;;;;13.30;8.93;;;23.00;43.20;;;;;;4978170;28;20108;-75
2023/05/04 10:22:00;;;;;;;11.50;7.93;;;23.40;42.60;;;;;;4997367;28;20371;-75
2023/05/04 10:24:56;;;;;;;;;;;23.60;42.10;;;;;;4981683;28;20287;-76
2023/05/04 10:27:36;;;;;;;;;;;23.70;40.80;;;;;;4968058;28;19956;-75
2023/05/04 10:30:03;;;;;;;12.88;8.50;;;23.80;41.30;;;;;;4984363;28;19910;-75
2023/05/04 10:32:29;;;;;;;13.85;8.93;;;24.00;41.00;;;;;;4980483;28;20117;-78
2023/05/04 10:35:08;;;;;;;12.43;9.20;;;23.80;41.60;;;;;;4983419;28;20092;-74
2023/05/04 10:37:36;;;;;;;11.80;8.48;;;23.90;40.60;;;;;;4981931;28;20038;-75
2023/05/04 10:40:06;;;;;;;12.15;7.80;;;23.60;41.30;;;;;;4981457;28;20027;-75
2023/05/04 10:42:42;;;;;;;11.88;8.57;;;23.60;40.40;;;;;;4982625;28;20127;-75
2023/05/04 10:45:09;;;;;;;12.88;8.43;;;23.90;41.10;;;;;;4979187;28;20129;-77
2023/05/04 10:47:36;;;;;;;14.25;8.85;;;23.70;40.50;;;;;;4982367;28;20488;-75
2023/05/04 10:50:14;;;;;;;13.43;8.77;;;23.70;40.20;;;;;;4983164;28;20050;-76
2023/05/04 10:52:52;;;;;;;11.32;7.40;;;23.80;40.90;;;;;;4982000;28;20034;-77
2023/05/04 10:55:19;;;;;;;12.60;8.27;;;23.80;40.70;;;;;;4997193;28;20037;-77
2023/05/04 10:57:52;;;;;;;11.13;7.93;;;24.30;41.20;;;;;;4980453;28;20042;-76
2023/05/04 11:00:19;;;;;;;11.60;8.30;;;24.60;40.10;;;;;;4994823;28;20574;-78
2023/05/04 11:02:47;;;;;;;10.35;7.78;;;24.60;39.00;;;;;;4998438;28;20596;-75
2023/05/04 11:05:18;;;;;;;11.05;8.23;;;24.60;39.40;;;;;;5003225;28;20415;-75
2023/05/04 11:07:45;;;;;;;10.57;7.20;;;24.70;39.90;;;;;;4995819;28;20463;-76
2023/05/04 11:10:22;;;;;;;11.43;8.10;;;25.00;39.80;;;;;;5002534;28;20081;-75
2023/05/04 11:12:48;;;;;;;13.30;8.60;;;24.50;38.30;;;;;;5005224;28;20034;-76
2023/05/04 11:15:14;;;;;;;11.68;7.88;;;24.00;40.20;;;;;;5004076;28;20526;-74
2023/05/04 11:17:50;;;;;;;12.20;7.57;;;23.60;39.20;;;;;;4986951;28;20049;-75
2023/05/04 11:20:26;;;;;;;11.73;8.07;;;23.50;40.40;;;;;;5002258;28;20030;-75
2023/05/04 11:22:53;;;;;;;11.30;8.23;;;23.50;41.60;;;;;;4998974;28;20076;-76
2023/05/04 11:25:29;;;;;;;11.23;8.13;;;23.50;41.70;;;;;;5003249;28;20573;-75
2023/05/04 11:27:55;;;;;;;10.52;7.43;;;23.70;41.90;;;;;;5000557;28;20040;-75
2023/05/04 11:30:32;;;;;;;8.18;5.97;;;23.80;39.90;;;;;;4995810;28;20459;-75
2023/05/04 11:32:59;;;;;;;12.25;7.45;;;23.70;40.40;;;;;;5002766;28;20026;-75
2023/05/04 11:35:25;;;;;;;10.30;7.10;;;23.70;40.30;;;;;;5001771;28;20398;-74
2023/05/04 11:37:51;;;;;;;10.18;6.85;;;23.60;40.20;;;;;;5001780;28;20033;-75
2023/05/04 11:40:26;;;;;;;10.70;6.40;;;23.90;40.60;;;;;;4998431;28;20036;-75
2023/05/04 11:42:53;;;;;;;15.27;8.00;;;24.40;40.30;;;;;;4996317;28;20037;-75
2023/05/04 11:45:25;;;;;;;11.80;7.97;;;24.50;40.40;;;;;;4992759;28;20034;-75
2023/05/04 11:47:52;;;;;;;12.13;7.63;;;24.40;40.30;;;;;;4989553;28;20127;-73
2023/05/04 11:50:19;;;;;;;11.60;8.05;;;24.40;40.00;;;;;;4995608;28;20379;-77
2023/05/04 11:52:45;;;;;;;10.75;7.13;;;24.50;39.90;;;;;;5002758;28;20050;-75
2023/05/04 11:55:23;;;;;;;11.43;7.60;;;24.60;39.90;;;;;;4991152;28;20033;-75
2023/05/04 11:57:58;;;;;;;13.15;7.57;;;24.30;39.00;;;;;;4992723;28;20399;-78
2023/05/04 12:00:44;;;;;;;9.18;6.65;;;24.30;40.80;;;;;;4997258;28;20037;-75
2023/05/04 12:03:25;;;;;;;11.35;7.38;;;24.90;40.50;;;;;;4997294;28;20029;-76
2023/05/04 12:05:52;;;;;;;10.45;7.68;;;24.80;38.90;;;;;;4999920;28;20036;-75
2023/05/04 12:08:29;;;;;;;11.48;7.95;;;24.50;39.60;;;;;;5004140;28;20096;-75
2023/05/04 12:11:24;;;;;;;9.85;7.00;;;24.30;40.00;;;;;;5003912;28;20060;-77
2023/05/04 12:14:05;;;;;;;8.43;6.30;;;24.10;40.20;;;;;;5001813;28;20014;-77
2023/05/04 12:16:31;;;;;;;11.85;6.50;;;24.30;39.60;;;;;;5003205;28;20486;-77
2023/05/04 12:19:12;;;;;;;9.70;6.13;;;24.70;38.70;;;;;;5003571;28;20061;-76
2023/05/04 12:21:49;;;;;;;12.75;6.80;;;25.10;38.00;;;;;;5004097;28;20111;-76
2023/05/04 12:24:14;;;;;;;10.70;6.35;;;25.30;37.70;;;;;;5001150;28;20034;-75
2023/05/04 12:26:41;;;;;;;10.30;6.80;;;25.50;37.90;;;;;;5000568;28;20038;-76
2023/05/04 12:29:07;;;;;;;11.55;6.15;;;25.60;37.50;;;;;;5001775;28;20017;-77
2023/05/04 12:31:32;;;;;;;10.48;5.90;;;25.80;38.00;;;;;;4999851;28;20042;-76
2023/05/04 12:33:58;;;;;;;10.93;7.10;;;26.00;37.30;;;;;;4983595;28;20033;-76
2023/05/04 12:36:24;;;;;;;11.38;7.38;;;25.70;37.10;;;;;;4984273;28;20427;-76